weather.gov     
National Weather Service

Terminal Aerodrome Forecast
NWS Homepage
This page is being discontinued on March 12, 2014.
The same data is available at this site. Please update your bookmarks.
Thank you, and we apologize for the inconvenience.
Please send an email to SR-SRH.Webmaster@noaa.gov with any concerns.


Current Version
Previous Version:    01  02  03  04  05  06  07  08  09  10  11  12  13  14  15  16  17  18  19  20  21  22  23  24  25  26  27  28  29  30  
   31  32  33  34  35  36  37  38  39  40  41  42  43  
[Printable]
115
FTUS46 KPQR 221445 AAB
TAFHIO
TAF AMD
KHIO 221445Z 2215/2312 00000KT 3/4SM BR BKN002 BKN080
     FM221800 32003KT 6SM BR SCT004 BKN070
     FM222000 36004KT P6SM SCT045 BKN070
     FM230600 00000KT P6SM BKN060 OVC100
     FM230900 00000KT 2SM BR SCT005 OVC060=


115
FTUS46 KPQR 221445 AAB
TAFHIO
TAF AMD
KHIO 221445Z 2215/2312 00000KT 3/4SM BR BKN002 BKN080
     FM221800 32003KT 6SM BR SCT004 BKN070
     FM222000 36004KT P6SM SCT045 BKN070
     FM230600 00000KT P6SM BKN060 OVC100
     FM230900 00000KT 2SM BR SCT005 OVC060=




U.S. Dept. of Commerce
NOAA National Weather Service
1325 East West Highway
Silver Spring, MD 20910
E-mail: w-nws.webmaster@noaa.gov
Page last modified: May 16, 2007
NATIONAL WEATHER SERVICE: for Safety, for Work, for Fun - FOR LIFE